Weather at Collingwood Airport

Public forecast

Using degrees Celsius for public forecast. Weather courtesy of forecast.io.

Closest aviation weather report (METAR) to Collingwood Airport

Closest report is CFB Borden, 15.0 nm (27.8 km) SE. Retrieved 2021/03/05 04:00 UTC (2 hours ago):

CYBN 050400Z AUTO 29004KT 9SM CLR M10/M16 A3015 RMK SLP227

Closest aviation forecast (TAF) to Collingwood Airport

Closest forecast is CFB Borden, 15.0 nm (27.8 km) SE. Retrieved 2021-03-05 00:33 UTC (5 hours ago):

TAF TAF CYBN 042330Z 0500/0512 32012G22KT P6SM BKN030 TEMPO 0500/0502 5SM -SHSN BKN020 FM050200 34012KT P6SM SCT020 TEMPO 0502/0505 BKN020 RMK FCST BASED ON AUTO OBS NXT FCST BY 050600Z